createdAt,value
2024-04-21T00:00:33.017Z,2.18
2024-04-21T00:03:21.910Z,2.18
2024-04-21T00:05:51.177Z,2.15
2024-04-21T00:08:21.638Z,2.13
2024-04-21T00:10:50.057Z,2.11
2024-04-21T00:13:20.540Z,2.08
2024-04-21T00:15:50.172Z,2.06
2024-04-21T00:18:21.403Z,2.01
2024-04-21T00:20:51.771Z,1.97
2024-04-21T00:23:21.512Z,1.95
2024-04-21T00:25:59.534Z,1.90
2024-04-21T00:28:31.110Z,1.88
2024-04-21T00:31:00.344Z,1.85
2024-04-21T00:33:28.682Z,1.84
2024-04-21T00:35:56.912Z,1.82
2024-04-21T00:38:26.826Z,1.76
2024-04-21T00:40:54.872Z,1.72
2024-04-21T00:43:25.729Z,1.73
2024-04-21T00:45:54.288Z,1.69
2024-04-21T00:48:22.997Z,1.66
2024-04-21T00:50:54.977Z,1.63
2024-04-21T00:53:24.755Z,1.60
2024-04-21T00:55:56.125Z,1.57
2024-04-21T00:58:24.942Z,1.53
2024-04-21T01:00:53.148Z,1.52
2024-04-21T01:03:24.461Z,1.48
2024-04-21T01:05:56.424Z,1.46
2024-04-21T01:08:25.087Z,1.44
2024-04-21T01:10:53.351Z,1.43
2024-04-21T01:13:22.930Z,1.41
2024-04-21T01:15:53.549Z,1.40
2024-04-21T01:18:21.911Z,1.38
2024-04-21T01:20:50.215Z,1.36
2024-04-21T01:23:22.476Z,1.36
2024-04-21T01:25:50.930Z,1.36
2024-04-21T01:28:20.044Z,1.36
2024-04-21T01:30:48.573Z,1.34
2024-04-21T01:33:16.886Z,1.33
2024-04-21T01:35:45.922Z,1.30
2024-04-21T01:38:14.087Z,1.30
2024-04-21T01:40:42.528Z,1.29
2024-04-21T01:43:12.781Z,1.27
2024-04-21T01:45:46.707Z,1.25
2024-04-21T01:48:18.414Z,1.19
2024-04-21T01:50:49.768Z,1.20
2024-04-21T01:53:18.174Z,1.19
2024-04-21T01:55:46.267Z,1.14
2024-04-21T01:58:15.141Z,1.11
2024-04-21T02:00:43.585Z,1.08
2024-04-21T02:03:11.961Z,1.03
2024-04-21T02:05:40.501Z,1.03
2024-04-21T02:08:08.428Z,1.01
2024-04-21T02:10:38.589Z,0.98
2024-04-21T02:13:07.539Z,0.96
2024-04-21T02:15:36.072Z,0.95
2024-04-21T02:18:05.635Z,0.90
2024-04-21T02:20:35.712Z,0.88
2024-04-21T02:23:03.893Z,0.87
2024-04-21T02:25:32.013Z,0.86
2024-04-21T02:28:00.241Z,0.86
2024-04-21T02:30:28.560Z,0.85
2024-04-21T02:32:57.961Z,0.87
2024-04-21T02:35:26.226Z,0.87
2024-04-21T02:37:54.223Z,0.84
2024-04-21T02:40:28.820Z,0.84
2024-04-21T02:42:57.057Z,0.82
2024-04-21T02:45:25.502Z,0.81
2024-04-21T02:47:54.573Z,0.77
2024-04-21T02:50:23.107Z,0.80
2024-04-21T02:52:52.536Z,0.79
2024-04-21T02:55:22.248Z,0.78
2024-04-21T02:57:50.402Z,0.79
2024-04-21T03:00:20.231Z,0.81
2024-04-21T03:02:48.927Z,0.80
2024-04-21T03:05:17.173Z,0.80
2024-04-21T03:07:47.010Z,0.82
2024-04-21T03:10:15.341Z,0.82
2024-04-21T03:12:47.080Z,0.82
2024-04-21T03:15:15.320Z,0.81
2024-04-21T03:17:43.860Z,0.81
2024-04-21T03:20:12.168Z,0.82
2024-04-21T03:22:40.405Z,0.82
2024-04-21T03:25:11.115Z,0.82
2024-04-21T03:27:40.579Z,0.83
2024-04-21T03:30:09.271Z,0.80
2024-04-21T03:32:38.648Z,0.80
2024-04-21T03:35:09.737Z,0.78
2024-04-21T03:37:38.150Z,0.75
2024-04-21T03:40:07.255Z,0.74
2024-04-21T03:42:35.902Z,0.72
2024-04-21T03:45:07.164Z,0.71
2024-04-21T03:47:35.462Z,0.72
2024-04-21T03:50:05.355Z,0.69
2024-04-21T03:52:33.528Z,0.68
2024-04-21T03:55:04.194Z,0.67
2024-04-21T03:57:32.374Z,0.70
2024-04-21T04:00:01.552Z,0.72
2024-04-21T04:02:29.808Z,0.76
2024-04-21T04:04:59.100Z,0.78
2024-04-21T04:07:27.801Z,0.81
2024-04-21T04:09:58.083Z,0.79
2024-04-21T04:12:26.740Z,0.85
2024-04-21T04:14:56.432Z,0.88
2024-04-21T04:17:25.032Z,0.87
2024-04-21T04:19:54.019Z,0.89
2024-04-21T04:22:25.969Z,0.91
2024-04-21T04:24:56.295Z,0.94
2024-04-21T04:27:24.502Z,0.98
2024-04-21T04:29:55.002Z,1.00
2024-04-21T04:32:23.134Z,1.05
2024-04-21T04:34:52.968Z,1.08
2024-04-21T04:37:22.592Z,1.15
2024-04-21T04:39:53.493Z,1.20
2024-04-21T04:42:21.669Z,1.29
2024-04-21T04:44:49.871Z,1.37
2024-04-21T04:47:18.271Z,1.46
2024-04-21T04:49:46.511Z,1.55
2024-04-21T04:52:15.102Z,1.63
2024-04-21T04:54:45.748Z,1.76
2024-04-21T04:57:13.933Z,1.87
2024-04-21T04:59:42.090Z,1.99
2024-04-21T05:02:10.262Z,2.13
2024-04-21T05:04:38.563Z,2.21
2024-04-21T05:07:06.836Z,2.30
2024-04-21T05:09:35.096Z,2.37
2024-04-21T05:12:04.822Z,2.51
2024-04-21T05:14:33.049Z,2.59
2024-04-21T05:17:04.181Z,2.64
2024-04-21T05:19:32.688Z,2.65
2024-04-21T05:22:01.702Z,2.74
2024-04-21T05:24:30.365Z,2.84
2024-04-21T05:27:02.116Z,2.96
2024-04-21T05:29:30.299Z,3.08
2024-04-21T05:31:59.276Z,3.23
2024-04-21T05:34:30.150Z,3.36
2024-04-21T05:37:00.660Z,3.48
2024-04-21T05:39:28.953Z,3.59
2024-04-21T05:41:58.770Z,3.71
2024-04-21T05:44:27.301Z,3.81
2024-04-21T05:46:56.395Z,3.91
2024-04-21T05:49:25.304Z,4.04
2024-04-21T05:51:53.842Z,4.14
2024-04-21T05:54:22.075Z,4.26
2024-04-21T05:56:50.957Z,4.36
2024-04-21T05:59:21.244Z,4.47
2024-04-21T06:01:49.493Z,4.59
2024-04-21T06:04:18.392Z,4.71
2024-04-21T06:06:47.331Z,4.81
2024-04-21T06:09:16.326Z,4.95
2024-04-21T06:11:45.942Z,5.12
2024-04-21T06:14:14.023Z,5.24
2024-04-21T06:16:43.425Z,5.35
2024-04-21T06:19:12.950Z,5.46
2024-04-21T06:21:41.106Z,5.59
2024-04-21T06:24:09.383Z,5.73
2024-04-21T06:26:43.090Z,5.86
2024-04-21T06:29:15.971Z,5.98
2024-04-21T06:31:47.483Z,6.10
2024-04-21T06:34:15.884Z,6.27
2024-04-21T06:36:44.303Z,6.40
2024-04-21T06:39:13.985Z,6.53
2024-04-21T06:41:42.106Z,6.70
2024-04-21T06:44:10.786Z,6.85
2024-04-21T06:46:40.430Z,6.94
2024-04-21T06:49:09.501Z,7.11
2024-04-21T06:51:37.823Z,7.28
2024-04-21T06:54:06.759Z,7.45
2024-04-21T06:56:34.994Z,7.67
2024-04-21T06:59:03.210Z,7.85
2024-04-21T07:01:31.488Z,8.00
2024-04-21T07:04:03.468Z,8.13
2024-04-21T07:06:31.618Z,8.29
2024-04-21T07:09:01.378Z,8.42
2024-04-21T07:11:30.444Z,8.56
2024-04-21T07:14:10.645Z,8.67
2024-04-21T07:16:47.238Z,8.90
2024-04-21T07:19:15.351Z,9.05
2024-04-21T07:21:46.008Z,9.28
2024-04-21T07:24:14.602Z,9.42
2024-04-21T07:26:42.832Z,9.59
2024-04-21T07:29:11.477Z,9.66
2024-04-21T07:31:41.100Z,9.84
2024-04-21T07:34:11.474Z,9.96
2024-04-21T07:36:44.150Z,10.10
2024-04-21T07:39:13.708Z,10.18
2024-04-21T07:41:41.917Z,10.22
2024-04-21T07:44:10.210Z,10.30
2024-04-21T07:46:38.317Z,10.33
2024-04-21T07:49:09.133Z,10.40
2024-04-21T07:51:37.179Z,10.47
2024-04-21T07:54:07.223Z,10.54
2024-04-21T07:56:36.808Z,10.60
2024-04-21T07:59:06.035Z,10.67
2024-04-21T08:01:37.220Z,10.79
2024-04-21T08:04:05.699Z,10.85
2024-04-21T08:06:34.075Z,10.90
2024-04-21T08:09:11.537Z,10.92
2024-04-21T08:11:51.694Z,10.94
2024-04-21T08:14:20.396Z,11.02
2024-04-21T08:16:50.121Z,11.06
2024-04-21T08:19:20.176Z,11.10
2024-04-21T08:21:51.082Z,11.12
2024-04-21T08:24:22.800Z,11.21
2024-04-21T08:26:55.219Z,11.26
2024-04-21T08:29:24.205Z,11.38
2024-04-21T08:31:52.498Z,11.47
2024-04-21T08:34:23.879Z,11.53
2024-04-21T08:36:55.317Z,11.41
2024-04-21T08:39:23.832Z,11.51
2024-04-21T08:42:01.133Z,11.62
2024-04-21T08:44:32.970Z,11.71
2024-04-21T08:47:04.083Z,11.80
2024-04-21T08:49:32.449Z,11.85
2024-04-21T08:52:04.249Z,11.89
2024-04-21T08:54:33.787Z,11.98
2024-04-21T08:57:03.227Z,11.99
2024-04-21T08:59:33.619Z,12.05
2024-04-21T09:02:02.981Z,12.03
2024-04-21T09:04:36.194Z,12.15
2024-04-21T09:07:08.005Z,12.27
2024-04-21T09:09:36.976Z,12.25
2024-04-21T09:12:06.885Z,12.31
2024-04-21T09:14:49.155Z,12.38
2024-04-21T09:17:18.260Z,12.49
2024-04-21T09:19:48.031Z,12.58
2024-04-21T09:22:17.455Z,12.67
2024-04-21T09:24:49.117Z,12.81
2024-04-21T09:27:21.236Z,12.86
2024-04-21T09:29:51.857Z,12.92
2024-04-21T09:32:22.926Z,13.00
2024-04-21T09:34:52.458Z,13.05
2024-04-21T09:37:22.091Z,13.24
2024-04-21T09:39:51.546Z,13.34
2024-04-21T09:42:21.981Z,13.60
2024-04-21T09:44:50.999Z,13.73
2024-04-21T09:47:21.620Z,13.96
2024-04-21T09:49:52.817Z,14.27
2024-04-21T09:52:22.304Z,14.55
2024-04-21T09:54:51.027Z,14.72
2024-04-21T09:57:21.979Z,14.75
2024-04-21T10:00:01.292Z,14.91
2024-04-21T10:02:39.006Z,14.91
2024-04-21T10:05:11.202Z,14.93
2024-04-21T10:07:44.610Z,15.01
2024-04-21T10:10:19.784Z,15.28
2024-04-21T10:12:51.209Z,15.47
2024-04-21T10:15:22.619Z,15.48
2024-04-21T10:17:57.907Z,15.25
2024-04-21T10:20:38.020Z,15.63
2024-04-21T10:23:13.471Z,15.96
2024-04-21T10:25:45.576Z,16.33
2024-04-21T10:28:17.966Z,16.67
2024-04-21T10:30:49.256Z,16.70
2024-04-21T10:33:28.138Z,16.24
2024-04-21T10:36:00.370Z,16.12
2024-04-21T10:38:30.786Z,16.61
2024-04-21T10:41:04.971Z,17.10
2024-04-21T10:43:36.371Z,17.08
2024-04-21T10:46:05.071Z,17.02
2024-04-21T10:48:33.638Z,17.22
2024-04-21T10:51:02.575Z,17.32
2024-04-21T10:53:31.037Z,17.55
2024-04-21T10:55:59.803Z,17.51
2024-04-21T10:58:28.081Z,16.85
2024-04-21T11:00:56.870Z,16.43
2024-04-21T11:03:25.573Z,16.42
2024-04-21T11:06:04.414Z,17.06
2024-04-21T11:08:33.378Z,17.46
2024-04-21T11:11:04.910Z,17.71
2024-04-21T11:13:33.086Z,18.18
2024-04-21T11:16:04.908Z,18.09
2024-04-21T11:18:34.044Z,18.18
2024-04-21T11:21:02.591Z,18.68
2024-04-21T11:23:31.623Z,19.17
2024-04-21T11:26:03.334Z,19.37
2024-04-21T11:28:31.475Z,18.74
2024-04-21T11:31:07.707Z,18.56
2024-04-21T11:33:36.977Z,18.44
2024-04-21T11:36:11.794Z,18.83
2024-04-21T11:38:40.191Z,19.40
2024-04-21T11:41:08.313Z,19.62
2024-04-21T11:43:37.624Z,20.25
2024-04-21T11:46:07.643Z,20.12
2024-04-21T11:48:37.832Z,20.42
2024-04-21T11:51:06.448Z,20.19
2024-04-21T11:53:37.604Z,19.53
2024-04-21T11:56:09.018Z,20.57
2024-04-21T11:58:37.423Z,20.77
2024-04-21T12:01:06.352Z,20.77
2024-04-21T12:03:35.301Z,20.17
2024-04-21T12:06:05.841Z,20.67
2024-04-21T12:08:35.060Z,21.07
2024-04-21T12:11:07.245Z,21.47
2024-04-21T12:13:38.474Z,21.68
2024-04-21T12:16:07.550Z,21.40
2024-04-21T12:18:36.130Z,21.89
2024-04-21T12:21:05.874Z,22.09
2024-04-21T12:23:35.250Z,20.82
2024-04-21T12:26:04.855Z,19.35
2024-04-21T12:28:35.065Z,18.53
2024-04-21T12:31:03.588Z,18.91
2024-04-21T12:33:32.076Z,19.55
2024-04-21T12:36:01.035Z,20.71
2024-04-21T12:38:29.565Z,21.20
2024-04-21T12:40:58.725Z,21.29
2024-04-21T12:43:30.266Z,21.60
2024-04-21T12:45:58.615Z,21.59
2024-04-21T12:48:28.001Z,21.85
2024-04-21T12:50:56.806Z,21.77
2024-04-21T12:53:28.015Z,21.94
2024-04-21T12:55:56.459Z,22.09
2024-04-21T12:58:25.059Z,22.04
2024-04-21T13:00:54.066Z,22.05
2024-04-21T13:03:24.451Z,22.24
2024-04-21T13:05:52.748Z,22.64
2024-04-21T13:08:22.207Z,22.13
2024-04-21T13:10:52.730Z,22.00
2024-04-21T13:13:21.525Z,21.06
2024-04-21T13:15:51.910Z,20.32
2024-04-21T13:18:22.478Z,20.15
2024-04-21T13:20:52.287Z,20.24
2024-04-21T13:23:24.643Z,19.75
2024-04-21T13:25:54.294Z,18.23
2024-04-21T13:28:24.218Z,18.03
2024-04-21T13:30:52.546Z,18.44
2024-04-21T13:33:21.772Z,17.91
2024-04-21T13:35:49.986Z,17.40
2024-04-21T13:38:20.464Z,17.97
2024-04-21T13:40:49.465Z,18.62
2024-04-21T13:43:17.588Z,19.71
2024-04-21T13:45:46.716Z,19.67
2024-04-21T13:48:15.852Z,20.38
2024-04-21T13:50:45.648Z,20.95
2024-04-21T13:53:15.253Z,21.75
2024-04-21T13:55:43.764Z,22.65
2024-04-21T13:58:13.067Z,23.40
2024-04-21T14:00:43.507Z,23.49
2024-04-21T14:03:14.904Z,21.60
2024-04-21T14:05:44.324Z,20.53
2024-04-21T14:08:13.878Z,20.26
2024-04-21T14:10:42.137Z,19.44
2024-04-21T14:13:10.251Z,18.92
2024-04-21T14:15:38.399Z,18.59
2024-04-21T14:18:07.399Z,18.72
2024-04-21T14:20:36.741Z,19.04
2024-04-21T14:23:09.084Z,20.32
2024-04-21T14:25:38.445Z,20.89
2024-04-21T14:28:10.841Z,21.66
2024-04-21T14:30:39.229Z,21.73
2024-04-21T14:33:10.411Z,22.59
2024-04-21T14:35:39.448Z,23.04
2024-04-21T14:38:10.016Z,23.04
2024-04-21T14:40:38.202Z,22.14
2024-04-21T14:43:08.005Z,21.21
2024-04-21T14:45:43.666Z,21.05
2024-04-21T14:48:12.212Z,20.93
2024-04-21T14:50:41.238Z,20.52
2024-04-21T14:53:09.516Z,19.63
2024-04-21T14:55:45.759Z,19.38
2024-04-21T14:58:14.007Z,18.69
2024-04-21T15:00:44.219Z,18.70
2024-04-21T15:03:12.856Z,18.48
2024-04-21T15:05:42.459Z,18.93
2024-04-21T15:08:11.764Z,19.44
2024-04-21T15:10:40.028Z,19.72
2024-04-21T15:13:08.835Z,19.62
2024-04-21T15:15:40.410Z,19.33
2024-04-21T15:18:09.047Z,19.53
2024-04-21T15:20:41.765Z,19.43
2024-04-21T15:23:09.911Z,19.64
2024-04-21T15:25:38.666Z,19.57
2024-04-21T15:28:07.054Z,19.80
2024-04-21T15:30:36.541Z,20.22
2024-04-21T15:33:05.806Z,20.45
2024-04-21T15:35:34.249Z,20.62
2024-04-21T15:38:03.042Z,20.97
2024-04-21T15:40:31.345Z,21.38
2024-04-21T15:43:02.923Z,21.46
2024-04-21T15:45:33.943Z,20.45
2024-04-21T15:48:02.292Z,19.35
2024-04-21T15:50:32.878Z,18.49
2024-04-21T15:53:01.476Z,19.33
2024-04-21T15:55:30.148Z,19.85
2024-04-21T15:57:58.415Z,19.75
2024-04-21T16:00:32.779Z,19.27
2024-04-21T16:03:04.703Z,18.56
2024-04-21T16:05:33.468Z,18.05
2024-04-21T16:08:09.668Z,17.34
2024-04-21T16:10:38.705Z,16.90
2024-04-21T16:13:13.025Z,16.61
2024-04-21T16:15:41.521Z,16.35
2024-04-21T16:18:09.694Z,16.08
2024-04-21T16:20:38.190Z,15.77
2024-04-21T16:23:06.727Z,15.46
2024-04-21T16:25:36.063Z,15.14
2024-04-21T16:28:09.091Z,15.02
2024-04-21T16:30:38.718Z,14.77
2024-04-21T16:33:09.244Z,14.57
2024-04-21T16:35:37.715Z,14.35
2024-04-21T16:38:07.947Z,14.34
2024-04-21T16:40:38.067Z,14.23
2024-04-21T16:43:08.554Z,14.09
2024-04-21T16:45:38.431Z,13.99
2024-04-21T16:48:13.061Z,13.85
2024-04-21T16:50:46.064Z,13.70
2024-04-21T16:53:15.060Z,13.56
2024-04-21T16:55:45.901Z,13.39
2024-04-21T16:58:16.588Z,13.23
2024-04-21T17:00:45.361Z,13.14
2024-04-21T17:03:14.391Z,13.02
2024-04-21T17:05:48.724Z,12.91
2024-04-21T17:08:24.286Z,12.82
2024-04-21T17:10:52.692Z,12.71
2024-04-21T17:13:21.589Z,12.61
2024-04-21T17:15:50.918Z,12.52
2024-04-21T17:18:19.032Z,12.41
2024-04-21T17:20:48.587Z,12.31
2024-04-21T17:23:18.500Z,12.20
2024-04-21T17:25:47.053Z,12.10
2024-04-21T17:28:16.657Z,11.98
2024-04-21T17:30:45.155Z,11.90
2024-04-21T17:33:13.387Z,11.82
2024-04-21T17:35:41.889Z,11.74
2024-04-21T17:38:10.492Z,11.65
2024-04-21T17:40:38.911Z,11.56
2024-04-21T17:43:08.351Z,11.44
2024-04-21T17:45:37.797Z,11.34
2024-04-21T17:48:09.280Z,11.26
2024-04-21T17:50:38.298Z,11.20
2024-04-21T17:53:09.028Z,11.13
2024-04-21T17:55:40.257Z,11.05
2024-04-21T17:58:14.502Z,10.97
2024-04-21T18:00:42.700Z,10.90
2024-04-21T18:03:10.994Z,10.84
2024-04-21T18:05:39.716Z,10.77
2024-04-21T18:08:08.243Z,10.71
2024-04-21T18:10:37.634Z,10.67
2024-04-21T18:13:06.345Z,10.64
2024-04-21T18:15:34.679Z,10.60
2024-04-21T18:18:02.998Z,10.56
2024-04-21T18:20:31.372Z,10.52
2024-04-21T18:22:59.753Z,10.48
2024-04-21T18:25:28.134Z,10.42
2024-04-21T18:27:59.693Z,10.37
2024-04-21T18:30:29.933Z,10.32
2024-04-21T18:32:58.242Z,10.26
2024-04-21T18:35:29.667Z,10.20
2024-04-21T18:37:58.626Z,10.13
2024-04-21T18:40:31.548Z,10.06
2024-04-21T18:43:01.157Z,10.01
2024-04-21T18:45:30.220Z,9.97
2024-04-21T18:47:59.554Z,9.91
2024-04-21T18:50:27.758Z,9.86
2024-04-21T18:52:56.296Z,9.81
2024-04-21T18:55:25.954Z,9.76
2024-04-21T18:58:00.244Z,9.71
2024-04-21T19:00:28.724Z,9.66
2024-04-21T19:03:01.432Z,9.63
2024-04-21T19:05:39.322Z,9.58
2024-04-21T19:08:09.718Z,9.54
2024-04-21T19:10:40.170Z,9.51
2024-04-21T19:13:09.488Z,9.46
2024-04-21T19:15:38.748Z,9.42
2024-04-21T19:18:08.161Z,9.36
2024-04-21T19:20:40.575Z,9.33
2024-04-21T19:23:12.217Z,9.28
2024-04-21T19:25:41.589Z,9.23
2024-04-21T19:28:10.354Z,9.18
2024-04-21T19:30:39.967Z,9.13
2024-04-21T19:33:08.068Z,9.07
2024-04-21T19:35:37.833Z,9.02
2024-04-21T19:38:07.250Z,8.96
2024-04-21T19:40:35.384Z,8.91
2024-04-21T19:43:05.256Z,8.86
2024-04-21T19:45:34.191Z,8.81
2024-04-21T19:48:03.770Z,8.74
2024-04-21T19:50:33.249Z,8.69
2024-04-21T19:53:04.271Z,8.63
2024-04-21T19:55:33.578Z,8.57
2024-04-21T19:58:04.504Z,8.52
2024-04-21T20:00:36.358Z,8.48
2024-04-21T20:03:09.618Z,8.43
2024-04-21T20:05:43.001Z,8.38
2024-04-21T20:08:14.366Z,8.34
2024-04-21T20:10:45.450Z,8.30
2024-04-21T20:13:16.146Z,8.26
2024-04-21T20:16:13.422Z,8.22
2024-04-21T20:18:41.918Z,8.17
2024-04-21T20:21:10.880Z,8.09
2024-04-21T20:23:39.495Z,8.04
2024-04-21T20:26:13.643Z,7.98
2024-04-21T20:28:42.849Z,7.93
2024-04-21T20:31:15.859Z,7.87
2024-04-21T20:33:47.820Z,7.79
2024-04-21T20:36:24.940Z,7.75
2024-04-21T20:38:56.716Z,7.71
2024-04-21T20:41:28.151Z,7.68
2024-04-21T20:43:56.323Z,7.63
2024-04-21T20:46:25.138Z,7.59
2024-04-21T20:48:54.455Z,7.55
2024-04-21T20:51:22.776Z,7.51
2024-04-21T20:53:50.753Z,7.47
2024-04-21T20:56:18.902Z,7.44
2024-04-21T20:58:52.526Z,7.39
2024-04-21T21:01:22.427Z,7.36
2024-04-21T21:03:51.097Z,7.33
2024-04-21T21:06:20.705Z,7.31
2024-04-21T21:08:50.403Z,7.29
2024-04-21T21:11:19.122Z,7.27
2024-04-21T21:13:50.071Z,7.25
2024-04-21T21:16:19.704Z,7.21
2024-04-21T21:18:47.945Z,7.18
2024-04-21T21:21:17.752Z,7.15
2024-04-21T21:23:50.134Z,7.12
2024-04-21T21:26:20.334Z,7.06
2024-04-21T21:28:52.076Z,7.02
2024-04-21T21:31:21.453Z,7.00
2024-04-21T21:33:49.605Z,6.96
2024-04-21T21:36:18.789Z,6.95
2024-04-21T21:38:46.960Z,6.93
2024-04-21T21:41:15.339Z,6.91
2024-04-21T21:43:46.480Z,6.89
2024-04-21T21:46:15.142Z,6.87
2024-04-21T21:48:43.367Z,6.85
2024-04-21T21:51:11.972Z,6.81
2024-04-21T21:53:41.021Z,6.78
2024-04-21T21:56:10.783Z,6.74
2024-04-21T21:58:39.277Z,6.72
2024-04-21T22:01:07.658Z,6.71
2024-04-21T22:03:37.904Z,6.68
2024-04-21T22:06:07.520Z,6.67
2024-04-21T22:08:37.931Z,6.65
2024-04-21T22:11:07.535Z,6.63
2024-04-21T22:13:35.873Z,6.61
2024-04-21T22:16:05.845Z,6.59
2024-04-21T22:18:36.176Z,6.56
2024-04-21T22:21:08.430Z,6.55
2024-04-21T22:23:36.821Z,6.53
2024-04-21T22:26:05.684Z,6.50
2024-04-21T22:28:34.983Z,6.49
2024-04-21T22:31:06.654Z,6.48
2024-04-21T22:33:35.268Z,6.46
2024-04-21T22:36:06.715Z,6.44
2024-04-21T22:38:35.601Z,6.43
2024-04-21T22:41:06.106Z,6.45
2024-04-21T22:43:34.465Z,6.45
2024-04-21T22:46:07.758Z,6.46
2024-04-21T22:48:37.619Z,6.46
2024-04-21T22:51:06.576Z,6.48
2024-04-21T22:53:35.051Z,6.49
2024-04-21T22:56:04.190Z,6.50
2024-04-21T22:58:33.477Z,6.51
2024-04-21T23:01:08.386Z,6.51
2024-04-21T23:03:37.097Z,6.51
2024-04-21T23:06:07.835Z,6.51
2024-04-21T23:08:36.106Z,6.50
2024-04-21T23:11:04.661Z,6.48
2024-04-21T23:13:33.297Z,6.51
2024-04-21T23:16:05.725Z,6.51
2024-04-21T23:18:34.530Z,6.51
2024-04-21T23:21:02.740Z,6.50
2024-04-21T23:23:31.202Z,6.51
2024-04-21T23:26:01.442Z,6.52
2024-04-21T23:28:29.674Z,6.53
2024-04-21T23:30:59.356Z,6.53
2024-04-21T23:33:28.045Z,6.55
2024-04-21T23:35:58.581Z,6.53
2024-04-21T23:38:26.750Z,6.57
2024-04-21T23:40:56.872Z,6.57
2024-04-21T23:43:25.861Z,6.59
2024-04-21T23:45:54.627Z,6.58
2024-04-21T23:48:22.962Z,6.57
2024-04-21T23:50:51.191Z,6.57
2024-04-21T23:53:19.231Z,6.58
2024-04-21T23:55:48.517Z,6.54
2024-04-21T23:58:16.968Z,6.54
